Terminal Aerodrome Forecast
Issued by NWS Rapid City, SD

Home | Current Version | Previous Version | Graphics & Text | Print | Product List | Glossary On
Versions: 1 2 3 4 5 6 7 8 9 10 11 12 13 14
477
FTUS43 KUNR 261123
TAFRAP
TAF
KRAP 261123Z 2612/2712 36010KT P6SM FEW120
     FM261800 36006KT P6SM VCSH SCT040
     FM270100 33008KT P6SM SCT070=

USA.gov is the U.S. government's official web portal to all federal, state and local government web resources and services.